Time;durP1;ratioP1;P1;durP2;ratioP2;P2;SDS_P1;SDS_P2;PMS_P1;PMS_P2;Temp;Humidity;BMP_temperature;BMP_pressure;BME280_temperature;BME280_humidity;BME280_pressure;Samples;Min_cycle;Max_cycle;Signal;HPM_P1;HPM_P2
2022/04/07 00:01:09;;;;;;;3.20;1.20;;;;;;;10.12;100.00;99182.28;5303183;28;20024;-69
2022/04/07 00:03:41;;;;;;;5.53;1.45;;;;;;;10.12;100.00;99176.22;5297500;28;20077;-70
2022/04/07 00:06:12;;;;;;;10.00;1.58;;;;;;;10.06;100.00;99171.66;5301213;28;20023;-70
2022/04/07 00:08:44;;;;;;;8.40;1.65;;;;;;;10.06;100.00;99166.44;5300211;28;20439;-70
2022/04/07 00:11:15;;;;;;;6.55;1.35;;;;;;;10.05;100.00;99154.34;5302657;28;20016;-69
2022/04/07 00:13:46;;;;;;;3.00;1.20;;;;;;;10.03;100.00;99153.66;5302796;28;20114;-70
2022/04/07 00:16:18;;;;;;;4.75;1.50;;;;;;;9.99;100.00;99150.56;5303357;28;20030;-70
2022/04/07 00:18:49;;;;;;;6.07;1.20;;;;;;;10.04;100.00;99161.38;5298733;28;20546;-70
2022/04/07 00:21:35;;;;;;;4.05;1.23;;;;;;;10.02;100.00;99146.81;5299753;28;20039;-70
2022/04/07 00:24:07;;;;;;;7.50;1.88;;;;;;;10.03;100.00;99141.41;5297029;28;20068;-69
2022/04/07 00:26:38;;;;;;;3.90;1.30;;;;;;;10.05;100.00;99141.25;5299712;28;20473;-69
2022/04/07 00:29:10;;;;;;;5.47;1.45;;;;;;;10.03;100.00;99135.34;5298566;28;20051;-69
2022/04/07 00:31:42;;;;;;;8.80;1.58;;;;;;;10.06;100.00;99127.19;5299139;28;20030;-69
2022/04/07 00:34:13;;;;;;;6.25;1.27;;;;;;;10.06;100.00;99116.72;5296970;28;20022;-70
2022/04/07 00:36:44;;;;;;;8.10;1.83;;;;;;;10.06;100.00;99114.09;5295022;28;20435;-69
2022/04/07 00:39:16;;;;;;;5.53;1.55;;;;;;;10.02;100.00;99104.97;5302570;28;20058;-69
2022/04/07 00:41:47;;;;;;;6.38;1.67;;;;;;;10.05;100.00;99096.78;5301262;27;20038;-69
2022/04/07 00:44:21;;;;;;;6.10;1.65;;;;;;;10.02;100.00;99097.09;5295761;28;20031;-70
2022/04/07 00:46:53;;;;;;;4.90;1.55;;;;;;;10.01;100.00;99087.63;5297121;28;20019;-69
2022/04/07 00:49:24;;;;;;;5.30;2.13;;;;;;;9.96;100.00;99086.34;5299639;28;20031;-69
2022/04/07 00:51:56;;;;;;;6.15;1.77;;;;;;;10.01;100.00;99080.59;5301619;28;20023;-70
2022/04/07 00:54:29;;;;;;;7.78;2.03;;;;;;;10.02;100.00;99078.78;5300010;28;20071;-69
2022/04/07 00:57:00;;;;;;;6.47;2.00;;;;;;;9.96;100.00;99072.41;5301949;28;20020;-70
2022/04/07 00:59:33;;;;;;;9.02;2.00;;;;;;;9.98;100.00;99073.09;5300582;28;20404;-69
2022/04/07 01:02:06;;;;;;;7.75;1.83;;;;;;;9.99;100.00;99079.94;5300560;28;20031;-69
2022/04/07 01:04:38;;;;;;;7.38;2.00;;;;;;;9.97;100.00;99084.53;5299603;28;20035;-70
2022/04/07 01:07:09;;;;;;;9.02;2.25;;;;;;;9.88;100.00;99054.16;5304035;28;20035;-70
2022/04/07 01:09:41;;;;;;;5.80;2.50;;;;;;;9.85;100.00;99055.31;5301319;28;20438;-69
2022/04/07 01:12:12;;;;;;;5.45;1.90;;;;;;;9.77;100.00;99052.72;5301522;28;20497;-70
2022/04/07 01:14:59;;;;;;;8.88;2.30;;;;;;;9.88;100.00;99049.72;5303796;28;20266;-70
2022/04/07 01:17:31;;;;;;;5.53;2.03;;;;;;;9.80;100.00;99046.34;5302936;28;20660;-69
2022/04/07 01:20:04;;;;;;;5.95;2.00;;;;;;;9.78;100.00;99045.72;5300038;27;20447;-70
2022/04/07 01:22:38;;;;;;;7.88;2.00;;;;;;;9.85;100.00;99034.41;5304444;28;20032;-69
2022/04/07 01:25:10;;;;;;;7.32;2.15;;;;;;;9.79;100.00;99031.63;5305233;28;20431;-70
2022/04/07 01:27:41;;;;;;;8.75;1.80;;;;;;;9.83;100.00;99023.28;5304509;28;20080;-69
2022/04/07 01:30:12;;;;;;;8.23;2.42;;;;;;;9.84;100.00;99022.28;5302508;28;20012;-69
2022/04/07 01:32:54;;;;;;;6.70;1.50;;;;;;;9.91;100.00;99004.13;5302246;28;20024;-70
2022/04/07 01:35:26;;;;;;;8.20;1.98;;;;;;;9.90;100.00;98999.88;5302829;28;20036;-70
2022/04/07 01:37:59;;;;;;;11.38;2.20;;;;;;;9.90;100.00;98999.88;5302407;28;20274;-70
2022/04/07 01:40:33;;;;;;;6.93;2.03;;;;;;;9.93;100.00;98983.84;5303289;28;20067;-69
2022/04/07 01:43:08;;;;;;;7.78;2.03;;;;;;;9.91;100.00;98977.97;5303224;28;20036;-70
2022/04/07 01:45:39;;;;;;;10.23;2.20;;;;;;;9.92;100.00;98971.72;5299053;28;20427;-70
2022/04/07 01:48:11;;;;;;;7.72;2.10;;;;;;;9.91;100.00;98978.78;5305145;28;20073;-69
2022/04/07 01:50:44;;;;;;;6.53;2.15;;;;;;;9.95;100.00;98963.53;5302522;28;20082;-70
2022/04/07 01:53:16;;;;;;;8.30;2.20;;;;;;;9.88;100.00;98963.41;5300789;28;20114;-69
2022/04/07 01:55:48;;;;;;;6.63;1.88;;;;;;;9.93;100.00;98963.72;5306111;28;20485;-70
2022/04/07 01:58:19;;;;;;;7.82;2.30;;;;;;;9.94;100.00;98962.75;5303301;28;20024;-70
2022/04/07 02:00:51;;;;;;;6.80;2.15;;;;;;;9.91;100.00;98963.06;5300915;28;20023;-69
2022/04/07 02:03:23;;;;;;;8.88;2.42;;;;;;;9.93;100.00;98947.22;5300528;28;20452;-69
2022/04/07 02:05:54;;;;;;;8.32;2.08;;;;;;;9.86;100.00;98954.13;5303294;28;20047;-69
2022/04/07 02:08:25;;;;;;;10.95;2.55;;;;;;;9.93;100.00;98961.13;5304869;28;20088;-69
2022/04/07 02:10:56;;;;;;;7.40;2.03;;;;;;;9.93;100.00;98950.66;5301738;28;20034;-70
2022/04/07 02:13:28;;;;;;;8.88;2.30;;;;;;;9.93;100.00;98944.59;5302547;28;20030;-69
2022/04/07 02:16:01;;;;;;;11.68;2.85;;;;;;;9.91;100.00;98943.94;5302994;28;20480;-69
2022/04/07 02:18:32;;;;;;;10.07;2.08;;;;;;;9.93;100.00;98939.38;5300895;28;20031;-71
2022/04/07 02:21:04;;;;;;;9.15;2.22;;;;;;;9.90;100.00;98942.34;5303602;28;20476;-69
2022/04/07 02:23:42;;;;;;;10.20;2.50;;;;;;;9.93;100.00;98921.88;5304634;28;20111;-69
2022/04/07 02:26:19;;;;;;;8.23;2.03;;;;;;;9.98;100.00;98926.59;5302391;28;20034;-70
2022/04/07 02:28:50;;;;;;;9.07;2.28;;;;;;;9.98;100.00;98930.00;5302069;28;20032;-69
2022/04/07 02:31:21;;;;;;;7.45;2.05;;;;;;;10.03;100.00;98929.47;5304044;28;20438;-69
2022/04/07 02:33:53;;;;;;;8.85;2.15;;;;;;;10.06;100.00;98917.88;5304098;28;20081;-69
2022/04/07 02:36:24;;;;;;;8.10;2.00;;;;;;;10.07;100.00;98919.50;5299636;28;20304;-69
2022/04/07 02:38:55;;;;;;;8.15;1.83;;;;;;;10.10;100.00;98913.91;5302912;28;20053;-69
2022/04/07 02:41:28;;;;;;;8.30;2.03;;;;;;;10.10;100.00;98912.09;5304780;28;20468;-69
2022/04/07 02:44:02;;;;;;;8.15;1.92;;;;;;;10.10;100.00;98906.06;5304395;28;20116;-69
2022/04/07 02:46:33;;;;;;;12.65;2.55;;;;;;;10.01;100.00;98892.25;5300071;28;20085;-69
2022/04/07 02:49:05;;;;;;;8.32;2.35;;;;;;;10.12;100.00;98885.78;5301514;28;20016;-69
2022/04/07 02:51:37;;;;;;;7.70;2.10;;;;;;;10.12;100.00;98888.41;5300231;28;20012;-69
2022/04/07 02:54:08;;;;;;;7.78;2.50;;;;;;;10.19;100.00;98884.06;5306373;28;20031;-70
2022/04/07 02:56:39;;;;;;;8.95;2.13;;;;;;;10.11;100.00;98865.81;5298284;28;20489;-69
2022/04/07 02:59:10;;;;;;;8.20;2.03;;;;;;;10.17;100.00;98868.56;5301509;28;20057;-69
2022/04/07 03:01:43;;;;;;;6.65;2.40;;;;;;;10.17;100.00;98865.94;5298437;28;20432;-69
2022/04/07 03:04:14;;;;;;;9.48;2.03;;;;;;;10.23;100.00;98859.22;5297848;28;20024;-69
2022/04/07 03:06:46;;;;;;;9.68;2.33;;;;;;;10.23;100.00;98859.22;5303559;28;20031;-69
2022/04/07 03:09:21;;;;;;;5.65;1.80;;;;;;;10.32;100.00;98842.47;5302112;28;20092;-70
2022/04/07 03:11:52;;;;;;;8.38;2.83;;;;;;;10.27;100.00;98836.16;5303615;28;20024;-69
2022/04/07 03:14:27;;;;;;;8.35;2.30;;;;;;;10.26;100.00;98824.84;5302941;28;20061;-69
2022/04/07 03:16:58;;;;;;;8.88;2.47;;;;;;;10.32;100.00;98832.00;5299251;28;20418;-69
2022/04/07 03:19:29;;;;;;;7.63;2.58;;;;;;;10.33;100.00;98817.09;5299594;28;20143;-69
2022/04/07 03:22:01;;;;;;;9.27;2.38;;;;;;;10.30;100.00;98807.78;5300379;28;20392;-69
2022/04/07 03:24:32;;;;;;;8.63;2.25;;;;;;;10.30;100.00;98797.31;5301265;28;20028;-70
2022/04/07 03:27:05;;;;;;;7.88;2.30;;;;;;;10.34;100.00;98795.16;5297452;28;20071;-69
2022/04/07 03:29:37;;;;;;;11.07;2.20;;;;;;;10.35;100.00;98800.22;5299666;28;20027;-69
2022/04/07 03:32:09;;;;;;;6.75;2.25;;;;;;;10.37;100.00;98805.28;5300304;28;20019;-69
2022/04/07 03:34:40;;;;;;;8.93;1.95;;;;;;;10.39;100.00;98805.94;5303019;28;20042;-69
2022/04/07 03:37:11;;;;;;;7.63;1.83;;;;;;;10.39;100.00;98796.25;5299738;28;20023;-69
2022/04/07 03:39:42;;;;;;;7.18;1.80;;;;;;;10.39;100.00;98791.03;5301628;28;20019;-70
2022/04/07 03:42:14;;;;;;;10.25;2.33;;;;;;;10.36;100.00;98783.53;5298773;28;20036;-69
2022/04/07 03:44:45;;;;;;;8.55;2.53;;;;;;;10.36;100.00;98777.47;5302436;28;20381;-70
2022/04/07 03:47:16;;;;;;;9.82;2.10;;;;;;;10.42;100.00;98774.16;5300272;28;20027;-69
2022/04/07 03:49:48;;;;;;;5.45;1.98;;;;;;;10.45;100.00;98790.31;5301297;28;20485;-69
2022/04/07 03:52:19;;;;;;;7.55;2.03;;;;;;;10.39;100.00;98770.09;5301065;28;20389;-69
2022/04/07 03:54:51;;;;;;;9.70;2.17;;;;;;;10.34;100.00;98767.19;5298367;28;20023;-70
2022/04/07 03:57:22;;;;;;;8.35;2.03;;;;;;;10.40;100.00;98753.38;5300981;28;20084;-69
2022/04/07 03:59:53;;;;;;;9.05;2.47;;;;;;;10.41;100.00;98746.34;5300630;28;20023;-69
2022/04/07 04:02:24;;;;;;;11.18;2.13;;;;;;;10.42;100.00;98734.88;5296524;28;20314;-69
2022/04/07 04:04:56;;;;;;;6.43;2.03;;;;;;;10.41;100.00;98725.41;5300785;28;20430;-69
2022/04/07 04:07:28;;;;;;;7.85;1.67;;;;;;;10.39;100.00;98704.66;5299203;28;20477;-69
2022/04/07 04:10:01;;;;;;;5.88;1.73;;;;;;;10.39;100.00;98722.16;5299924;28;20084;-69
2022/04/07 04:12:32;;;;;;;10.18;1.70;;;;;;;10.43;100.00;98705.09;5302673;28;20039;-69
2022/04/07 04:15:04;;;;;;;7.30;2.13;;;;;;;10.37;100.00;98688.28;5299314;28;20097;-70
2022/04/07 04:17:35;;;;;;;9.40;2.17;;;;;;;10.37;100.00;98666.53;5293311;28;21156;-70
2022/04/07 04:20:07;;;;;;;6.88;1.55;;;;;;;10.38;100.00;98658.53;5297965;28;20670;-70
2022/04/07 04:22:38;;;;;;;4.85;1.60;;;;;;;10.38;100.00;98652.47;5302559;28;20055;-70
2022/04/07 04:25:10;;;;;;;7.82;1.67;;;;;;;10.38;100.00;98637.59;5303313;28;21054;-70
2022/04/07 04:27:42;;;;;;;4.95;1.45;;;;;;;10.37;100.00;98627.28;5299098;28;20493;-70
2022/04/07 04:30:18;;;;;;;5.50;1.50;;;;;;;10.40;100.00;98632.16;5298812;28;20023;-69
2022/04/07 04:32:49;;;;;;;8.60;1.75;;;;;;;10.41;100.00;98642.44;5300051;28;20020;-70
2022/04/07 04:35:20;;;;;;;5.53;1.50;;;;;;;10.45;100.00;98627.19;5296970;28;20034;-70
2022/04/07 04:37:52;;;;;;;4.60;1.33;;;;;;;10.41;100.00;98634.59;5302237;28;20031;-69
2022/04/07 04:40:23;;;;;;;5.65;1.40;;;;;;;10.44;100.00;98626.38;5300715;28;20106;-69
2022/04/07 04:42:54;;;;;;;5.05;1.30;;;;;;;10.48;100.00;98611.91;5297039;28;20036;-69
2022/04/07 04:45:26;;;;;;;3.53;1.25;;;;;;;10.40;100.00;98621.69;5299726;28;20031;-70
2022/04/07 04:47:57;;;;;;;5.20;1.60;;;;;;;10.47;100.00;98612.13;5300814;28;20508;-69
2022/04/07 04:50:29;;;;;;;5.90;1.15;;;;;;;10.45;100.00;98601.84;5299035;28;20103;-69
2022/04/07 04:53:00;;;;;;;4.57;1.13;;;;;;;10.35;100.00;98590.84;5298314;28;20410;-70
2022/04/07 04:55:31;;;;;;;3.63;0.95;;;;;;;10.33;100.00;98584.16;5298360;28;20389;-69
2022/04/07 04:58:02;;;;;;;5.13;1.40;;;;;;;10.31;100.00;98575.69;5299403;28;20497;-69
2022/04/07 05:00:34;;;;;;;2.03;1.00;;;;;;;10.24;100.00;98575.56;5298637;28;20038;-69
2022/04/07 05:03:05;;;;;;;2.70;0.90;;;;;;;10.25;100.00;98548.44;5300601;28;20900;-69
2022/04/07 05:05:36;;;;;;;2.08;0.88;;;;;;;10.22;100.00;98541.72;5301043;28;20101;-69
2022/04/07 05:08:08;;;;;;;3.10;1.05;;;;;;;10.16;100.00;98521.53;5297732;28;20023;-69
2022/04/07 05:10:40;;;;;;;3.75;1.33;;;;;;;10.15;100.00;98542.66;5300364;28;20043;-69
2022/04/07 05:13:11;;;;;;;3.28;1.17;;;;;;;10.14;100.00;98526.13;5298017;28;20024;-69
2022/04/07 05:15:43;;;;;;;2.13;1.15;;;;;;;10.14;100.00;98531.38;5299038;28;20487;-69
2022/04/07 05:18:14;;;;;;;3.30;1.33;;;;;;;10.17;100.00;98528.41;5298152;28;20028;-69
2022/04/07 05:20:45;;;;;;;3.15;1.00;;;;;;;10.17;100.00;98531.00;5297395;28;20054;-69
2022/04/07 05:23:17;;;;;;;5.50;1.52;;;;;;;10.16;100.00;98513.69;5299759;28;20047;-69
2022/04/07 05:25:49;;;;;;;3.47;1.10;;;;;;;10.12;100.00;98496.75;5300994;28;20030;-69
2022/04/07 05:28:21;;;;;;;3.75;1.20;;;;;;;10.08;100.00;98487.66;5299887;28;20035;-69
2022/04/07 05:30:52;;;;;;;4.80;1.30;;;;;;;10.06;100.00;98481.78;5297429;28;20042;-69
2022/04/07 05:33:23;;;;;;;3.88;1.50;;;;;;;10.11;100.00;98502.94;5299752;28;20059;-69
2022/04/07 05:35:55;;;;;;;4.57;1.67;;;;;;;10.02;100.00;98488.38;5298091;28;20166;-69
2022/04/07 05:38:26;;;;;;;3.78;1.52;;;;;;;9.91;100.00;98483.63;5299366;28;20031;-69
2022/04/07 05:40:58;;;;;;;5.05;1.92;;;;;;;9.92;100.00;98475.56;5300379;28;20085;-69
2022/04/07 05:43:29;;;;;;;5.03;1.73;;;;;;;9.86;100.00;98471.09;5300025;28;20083;-70
2022/04/07 05:46:01;;;;;;;4.47;2.15;;;;;;;9.78;100.00;98457.34;5297466;28;20202;-69
2022/04/07 05:48:32;;;;;;;3.72;2.17;;;;;;;9.78;100.00;98454.72;5297667;28;20066;-70
2022/04/07 05:51:04;;;;;;;4.82;2.28;;;;;;;9.78;100.00;98442.44;5302425;28;20020;-70
2022/04/07 05:53:35;;;;;;;4.78;1.92;;;;;;;9.74;100.00;98430.75;5303704;28;20127;-70
2022/04/07 05:56:07;;;;;;;5.40;2.08;;;;;;;9.61;100.00;98423.53;5300799;28;20027;-70
2022/04/07 05:58:38;;;;;;;7.78;2.28;;;;;;;9.63;100.00;98415.53;5301514;28;20024;-69
2022/04/07 06:01:09;;;;;;;4.35;2.10;;;;;;;9.64;100.00;98407.47;5303925;27;20725;-70
2022/04/07 06:03:41;;;;;;;5.65;2.45;;;;;;;9.59;100.00;98395.97;5300800;28;20062;-70
2022/04/07 06:06:12;;;;;;;7.07;2.15;;;;;;;9.64;100.00;98397.03;5303518;28;20031;-70
2022/04/07 06:08:43;;;;;;;5.63;2.50;;;;;;;9.65;100.00;98398.63;5298969;28;20120;-70
2022/04/07 06:11:14;;;;;;;6.90;2.70;;;;;;;9.61;100.00;98380.91;5297624;28;20438;-70
2022/04/07 06:13:46;;;;;;;6.68;2.65;;;;;;;9.58;100.00;98371.63;5300867;28;20515;-69
2022/04/07 06:16:17;;;;;;;9.82;3.08;;;;;;;9.60;100.00;98381.91;5306464;28;20107;-70
2022/04/07 06:18:49;;;;;;;6.18;2.25;;;;;;;9.57;100.00;98374.41;5299389;28;20043;-70
2022/04/07 06:21:23;;;;;;;5.38;2.22;;;;;;;9.62;100.00;98354.59;5301567;28;20238;-69
2022/04/07 06:23:54;;;;;;;9.55;2.63;;;;;;;9.60;100.00;98345.31;5293352;28;20031;-70
2022/04/07 06:26:26;;;;;;;9.55;2.80;;;;;;;9.56;100.00;98347.47;5272026;28;20060;-70
2022/04/07 06:28:59;;;;;;;6.45;2.38;;;;;;;9.59;100.00;98338.47;5285146;28;21312;-70
2022/04/07 06:31:30;;;;;;;9.95;2.72;;;;;;;9.58;100.00;98336.81;5285375;28;20023;-70
2022/04/07 06:34:01;;;;;;;6.97;1.90;;;;;;;9.55;100.00;98327.56;5299651;28;20127;-70
2022/04/07 06:36:32;;;;;;;8.30;2.10;;;;;;;9.59;100.00;98331.44;5301307;28;20036;-70
2022/04/07 06:39:04;;;;;;;7.45;1.92;;;;;;;9.55;100.00;98321.53;5296523;28;20035;-69
2022/04/07 06:41:35;;;;;;;4.97;1.83;;;;;;;9.52;100.00;98306.22;5301817;28;20027;-70
2022/04/07 06:44:06;;;;;;;7.07;1.90;;;;;;;9.47;100.00;98299.75;5304108;28;20023;-70
2022/04/07 06:46:38;;;;;;;5.95;1.52;;;;;;;9.45;100.00;98283.44;5297673;28;20026;-70
2022/04/07 06:49:09;;;;;;;6.57;2.08;;;;;;;9.50;100.00;98288.09;5288256;28;20080;-70
2022/04/07 06:51:41;;;;;;;6.63;1.65;;;;;;;9.50;100.00;98270.59;5297091;28;20255;-70
2022/04/07 06:54:12;;;;;;;6.22;1.55;;;;;;;9.46;100.00;98268.56;5299406;28;20026;-70
2022/04/07 06:56:43;;;;;;;5.68;1.60;;;;;;;9.46;100.00;98248.44;5302647;28;20032;-69
2022/04/07 06:59:14;;;;;;;6.90;1.90;;;;;;;9.51;100.00;98245.31;5298105;28;20050;-70
2022/04/07 07:01:46;;;;;;;5.35;1.60;;;;;;;9.52;100.00;98235.66;5293998;28;20035;-70
2022/04/07 07:04:17;;;;;;;5.15;1.70;;;;;;;9.49;100.00;98226.38;5299380;28;20023;-69
2022/04/07 07:06:48;;;;;;;8.02;1.60;;;;;;;9.48;100.00;98217.72;5300944;28;20128;-70
2022/04/07 07:09:19;;;;;;;6.18;1.40;;;;;;;9.53;100.00;98211.13;5291610;28;20100;-70
2022/04/07 07:11:51;;;;;;;6.82;1.60;;;;;;;9.48;100.00;98206.47;5296008;28;20465;-70
2022/04/07 07:14:22;;;;;;;6.00;1.60;;;;;;;9.49;100.00;98203.66;5300635;28;20710;-70
2022/04/07 07:16:53;;;;;;;4.63;1.77;;;;;;;9.47;100.00;98184.75;5294858;28;20085;-70
2022/04/07 07:19:28;;;;;;;6.03;1.55;;;;;;;9.48;100.00;98168.06;5302519;28;20321;-70
2022/04/07 07:21:59;;;;;;;7.82;1.90;;;;;;;9.53;100.00;98161.47;5292952;28;20032;-70
2022/04/07 07:24:30;;;;;;;4.38;1.60;;;;;;;9.52;100.00;98152.81;5293398;28;20386;-70
2022/04/07 07:27:02;;;;;;;6.70;2.15;;;;;;;9.52;100.00;98139.75;5295268;28;20321;-70
2022/04/07 07:29:33;;;;;;;4.78;1.60;;;;;;;9.55;100.00;98141.19;5294724;28;20028;-70
2022/04/07 07:32:04;;;;;;;4.63;1.38;;;;;;;9.54;100.00;98122.06;5288591;28;20107;-70
2022/04/07 07:34:36;;;;;;;5.18;1.52;;;;;;;9.60;100.00;98123.94;5298705;28;20081;-70
2022/04/07 07:37:07;;;;;;;5.38;1.90;;;;;;;9.62;100.00;98123.72;5300322;28;20026;-70
2022/04/07 07:39:38;;;;;;;7.70;1.67;;;;;;;9.66;100.00;98122.34;5297903;28;20048;-70
2022/04/07 07:42:09;;;;;;;4.18;1.30;;;;;;;9.70;100.00;98108.72;5288471;28;20386;-70
2022/04/07 07:44:41;;;;;;;4.97;1.70;;;;;;;9.73;100.00;98141.50;5297022;28;20047;-70
2022/04/07 07:47:12;;;;;;;6.60;1.73;;;;;;;9.78;100.00;98259.41;5293418;28;20028;-69
2022/04/07 07:49:43;;;;;;;4.80;1.08;;;;;;;8.98;100.00;98310.03;5289249;27;20027;-70
2022/04/07 07:52:14;;;;;;;2.83;0.70;;;;;;;8.37;100.00;98315.44;5293760;27;20405;-70
2022/04/07 07:54:46;;;;;;;3.97;0.73;;;;;;;8.04;100.00;98320.09;5284675;28;21090;-70
2022/04/07 07:57:19;;;;;;;4.50;0.70;;;;;;;7.87;100.00;98306.34;5286195;28;20568;-71
2022/04/07 07:59:51;;;;;;;3.05;0.73;;;;;;;7.80;100.00;98297.63;5286527;28;20039;-71
2022/04/07 08:02:22;;;;;;;4.45;1.05;;;;;;;7.67;100.00;98294.78;5281123;28;20568;-70
2022/04/07 08:04:53;;;;;;;3.40;0.90;;;;;;;7.66;100.00;98277.53;5299337;28;20111;-71
2022/04/07 08:07:24;;;;;;;4.95;0.95;;;;;;;7.67;100.00;98273.94;5282538;28;20349;-70
2022/04/07 08:09:57;;;;;;;4.95;1.15;;;;;;;7.70;100.00;98282.22;5289942;28;20023;-70
2022/04/07 08:12:28;;;;;;;6.40;1.20;;;;;;;7.79;100.00;98275.16;5288581;28;20069;-70
2022/04/07 08:14:59;;;;;;;6.38;1.20;;;;;;;7.83;100.00;98265.19;5286825;28;21419;-71
2022/04/07 08:17:31;;;;;;;2.35;0.82;;;;;;;7.77;100.00;98267.50;5296382;28;20103;-71
2022/04/07 08:20:04;;;;;;;3.47;0.85;;;;;;;7.84;100.00;98265.03;5293482;28;20303;-70
2022/04/07 08:22:36;;;;;;;3.65;0.80;;;;;;;7.89;100.00;98267.91;5291270;28;20024;-71
2022/04/07 08:25:08;;;;;;;3.85;1.00;;;;;;;8.04;100.00;98267.94;5295149;28;20295;-71
2022/04/07 08:27:39;;;;;;;1.58;0.60;;;;;;;8.07;100.00;98272.81;5292298;28;20055;-71
2022/04/07 08:30:11;;;;;;;3.72;0.90;;;;;;;8.14;100.00;98263.25;5293337;28;20485;-71
2022/04/07 08:32:43;;;;;;;3.05;0.60;;;;;;;8.15;100.00;98259.69;5288003;28;20397;-71
2022/04/07 08:35:14;;;;;;;2.35;0.70;;;;;;;8.21;100.00;98269.38;5292692;28;20039;-71
2022/04/07 08:37:45;;;;;;;3.05;1.00;;;;;;;8.43;100.00;98275.56;5289857;28;20089;-71
2022/04/07 08:40:20;;;;;;;2.80;0.77;;;;;;;8.56;100.00;98271.50;5281906;28;20472;-71
2022/04/07 08:42:51;;;;;;;4.03;0.70;;;;;;;8.51;100.00;98253.78;5287375;28;20062;-71
2022/04/07 08:45:23;;;;;;;3.45;0.95;;;;;;;8.58;100.00;98261.72;5283486;28;20150;-71
2022/04/07 08:47:56;;;;;;;3.17;0.80;;;;;;;8.62;100.00;98249.91;5287400;28;20400;-71
2022/04/07 08:50:28;;;;;;;2.92;0.90;;;;;;;8.78;100.00;98252.31;5291811;28;20024;-71
2022/04/07 08:52:59;;;;;;;4.85;1.23;;;;;;;8.84;100.00;98251.63;5296840;28;20041;-71
2022/04/07 08:55:30;;;;;;;5.07;1.15;;;;;;;8.95;100.00;98248.53;5294977;28;20625;-71
2022/04/07 08:58:02;;;;;;;5.93;1.70;;;;;;;9.00;100.00;98255.81;5295233;28;20031;-71
2022/04/07 09:00:33;;;;;;;4.25;1.50;;;;;;;9.23;100.00;98256.47;5292825;28;20433;-70
2022/04/07 09:03:04;;;;;;;8.48;1.58;;;;;;;9.43;100.00;98250.63;5294633;28;20469;-71
2022/04/07 09:05:51;;;;;;;5.63;1.85;;;;;;;9.70;100.00;98247.28;5292124;28;20031;-71
2022/04/07 09:08:32;;;;;;;4.05;1.77;;;;;;;9.70;100.00;98251.72;5297559;28;20469;-71
2022/04/07 09:11:06;;;;;;;5.38;1.25;;;;;;;9.70;100.00;98252.50;5289815;28;20065;-71
2022/04/07 09:13:42;;;;;;;6.18;1.70;;;;;;;9.74;100.00;98247.72;5297983;28;20110;-70
2022/04/07 09:16:15;;;;;;;4.00;1.17;;;;;;;9.73;100.00;98254.72;5299723;28;20027;-71
2022/04/07 09:18:49;;;;;;;6.35;1.90;;;;;;;9.84;100.00;98252.59;5294225;28;20052;-71
2022/04/07 09:21:27;;;;;;;3.15;1.60;;;;;;;10.04;100.00;98257.97;5296520;28;20484;-71
2022/04/07 09:24:00;;;;;;;5.07;2.28;;;;;;;10.14;100.00;98256.66;5297127;28;20028;-71
2022/04/07 09:26:35;;;;;;;5.20;2.65;;;;;;;10.34;100.00;98256.84;5292600;28;20080;-71
2022/04/07 09:29:08;;;;;;;5.60;2.65;;;;;;;10.43;100.00;98247.81;5299256;28;20223;-70
2022/04/07 09:31:51;;;;;;;6.88;2.85;;;;;;;10.75;100.00;98255.22;5295417;28;20023;-71
2022/04/07 09:34:32;;;;;;;6.18;3.00;;;;;;;10.97;100.00;98272.47;5295317;28;20064;-70
2022/04/07 09:37:04;;;;;;;4.63;3.28;;;;;;;11.10;100.00;98271.69;5300759;28;20042;-71
2022/04/07 09:39:40;;;;;;;3.42;2.80;;;;;;;11.13;100.00;98269.47;5300537;28;20442;-71
2022/04/07 09:42:29;;;;;;;3.22;2.47;;;;;;;11.32;100.00;98275.78;5299702;28;20396;-71
2022/04/07 09:45:01;;;;;;;6.43;2.35;;;;;;;11.23;100.00;98276.97;5300245;28;20477;-71
2022/04/07 09:47:37;;;;;;;4.72;1.90;;;;;;;11.27;100.00;98286.06;5299679;28;20062;-71
2022/04/07 09:50:29;;;;;;;5.00;1.70;;;;;;;11.10;100.00;98276.94;5302157;28;20056;-71
2022/04/07 09:53:03;;;;;;;6.35;1.90;;;;;;;10.99;100.00;98274.91;5302195;28;20401;-71
2022/04/07 09:55:36;;;;;;;5.03;1.83;;;;;;;11.10;100.00;98274.31;5301137;28;20058;-71
2022/04/07 09:58:11;;;;;;;5.75;1.63;;;;;;;11.12;100.00;98267.06;5301218;28;20388;-71
2022/04/07 10:00:43;;;;;;;3.88;1.60;;;;;;;11.00;100.00;98271.25;5292754;28;20019;-71
2022/04/07 10:03:15;;;;;;;5.63;1.75;;;;;;;10.94;100.00;98271.03;5301257;28;20063;-71
2022/04/07 10:05:47;;;;;;;3.72;1.55;;;;;;;10.91;100.00;98275.84;5298719;28;20027;-71
2022/04/07 10:08:20;;;;;;;4.55;1.45;;;;;;;11.02;100.00;98280.53;5302993;28;20023;-71
2022/04/07 10:10:52;;;;;;;4.87;1.90;;;;;;;11.00;100.00;98279.13;5295359;28;20544;-71
2022/04/07 10:13:24;;;;;;;5.13;1.60;;;;;;;10.95;100.00;98269.25;5294587;28;20059;-71
2022/04/07 10:15:56;;;;;;;4.97;1.38;;;;;;;11.02;100.00;98295.44;5298745;28;20481;-71
2022/04/07 10:18:30;;;;;;;4.75;1.70;;;;;;;11.29;100.00;98298.97;5299446;28;20031;-71
2022/04/07 10:21:04;;;;;;;3.60;1.17;;;;;;;11.49;100.00;98284.13;5296644;28;20089;-70
2022/04/07 10:24:02;;;;;;;;;;;;;;;12.11;100.00;98298.72;5290530;28;20032;-71
2022/04/07 10:26:34;;;;;;;5.50;1.48;;;;;;;12.11;100.00;98282.97;5286002;28;19920;-71
2022/04/07 10:29:06;;;;;;;10.98;1.55;;;;;;;12.24;100.00;98297.94;5295661;28;20481;-70
2022/04/07 10:31:37;;;;;;;4.68;1.20;;;;;;;12.46;100.00;98302.94;5283223;28;20078;-71
2022/04/07 10:34:08;;;;;;;8.48;1.60;;;;;;;12.65;100.00;98299.47;5279547;28;20035;-71
2022/04/07 10:36:40;;;;;;;7.95;1.33;;;;;;;12.52;100.00;98299.50;5293031;28;20038;-71
2022/04/07 10:39:13;;;;;;;5.95;1.48;;;;;;;12.63;100.00;98306.75;5295721;28;20024;-71
2022/04/07 10:41:45;;;;;;;4.60;1.48;;;;;;;12.60;100.00;98320.28;5301802;28;20024;-71
2022/04/07 10:44:17;;;;;;;7.57;1.60;;;;;;;12.27;100.00;98322.94;5292079;28;20027;-71
2022/04/07 10:46:59;;;;;;;7.82;1.55;;;;;;;12.09;100.00;98311.25;5282648;28;20084;-71
2022/04/07 10:49:34;;;;;;;6.38;1.33;;;;;;;11.84;100.00;98337.25;5279102;28;20032;-71
2022/04/07 10:52:07;;;;;;;7.35;1.70;;;;;;;11.75;100.00;98343.69;5281584;28;20058;-71
2022/04/07 10:55:12;;;;;;;10.50;1.98;;;;;;;12.11;100.00;98340.72;5293930;28;20034;-71
2022/04/07 10:58:13;;;;;;;8.35;1.95;;;;;;;12.44;100.00;98331.22;5294321;28;20488;-71
2022/04/07 11:00:44;;;;;;;8.13;1.70;;;;;;;12.48;100.00;98348.19;5286443;28;20536;-70
2022/04/07 11:03:18;;;;;;;8.38;2.38;;;;;;;12.26;100.00;98358.91;5285415;28;20076;-71
2022/04/07 11:05:59;;;;;;;;;;;;;;;12.55;100.00;98367.38;5286013;28;20023;-71
2022/04/07 11:08:31;;;;;;;8.32;1.70;;;;;;;12.30;100.00;98360.09;5296751;28;20190;-71
2022/04/07 11:11:02;;;;;;;8.82;1.98;;;;;;;12.45;100.00;98366.97;5300025;28;20024;-71
2022/04/07 11:13:45;;;;;;;10.00;1.83;;;;;;;12.41;100.00;98370.00;5299610;28;20468;-71
2022/04/07 11:16:30;;;;;;;8.20;2.10;;;;;;;12.69;100.00;98379.50;5296608;28;20245;-70
2022/04/07 11:19:32;;;;;;;6.78;1.77;;;;;;;12.98;100.00;98391.34;5295817;28;20147;-71
2022/04/07 11:22:09;;;;;;;9.57;1.90;;;;;;;12.95;100.00;98383.88;5298140;28;20044;-70
2022/04/07 11:24:43;;;;;;;10.00;2.33;;;;;;;13.02;100.00;98399.63;5300726;28;20485;-70
2022/04/07 11:27:35;;;;;;;11.23;2.08;;;;;;;13.16;100.00;98395.97;5298585;28;20028;-70
2022/04/07 11:30:08;;;;;;;7.78;1.70;;;;;;;13.02;100.00;98395.19;5297097;28;20015;-71
2022/04/07 11:33:17;;;;;;;8.68;1.80;;;;;;;12.91;100.00;98411.56;5299533;28;20036;-71
2022/04/07 11:36:00;;;;;;;8.82;2.38;;;;;;;12.79;100.00;98431.59;5295986;28;20019;-70
2022/04/07 11:38:43;;;;;;;9.60;2.65;;;;;;;12.58;100.00;98443.94;5304160;28;20047;-71
2022/04/07 11:41:16;;;;;;;10.88;1.75;;;;;;;12.30;100.00;98433.59;5302957;28;20295;-71
2022/04/07 11:43:50;;;;;;;10.02;2.03;;;;;;;12.12;100.00;98436.00;5299600;28;20027;-70
2022/04/07 11:46:28;;;;;;;12.77;2.72;;;;;;;12.19;100.00;98431.56;5287397;28;20090;-70
2022/04/07 11:49:00;;;;;;;10.70;2.53;;;;;;;12.45;100.00;98433.44;5297342;28;20024;-70
2022/04/07 11:51:36;;;;;;;13.43;2.97;;;;;;;12.53;100.00;98445.56;5294265;28;20023;-70
2022/04/07 11:54:07;;;;;;;8.90;2.63;;;;;;;12.74;100.00;98460.31;5294799;28;20039;-70
2022/04/07 11:56:39;;;;;;;8.65;1.80;;;;;;;13.01;100.00;98456.66;5296453;28;20473;-70